createdAt,value
2023-11-30T00:00:17.413Z,50.23
2023-11-30T00:02:44.196Z,52.81
2023-11-30T00:05:11.088Z,54.67
2023-11-30T00:07:37.908Z,53.48
2023-11-30T00:10:05.092Z,51.52
2023-11-30T00:12:31.892Z,50.60
2023-11-30T00:14:58.792Z,51.41
2023-11-30T00:17:25.530Z,50.80
2023-11-30T00:19:52.253Z,51.39
2023-11-30T00:22:19.585Z,52.29
2023-11-30T00:24:46.387Z,52.82
2023-11-30T00:27:13.164Z,53.94
2023-11-30T00:29:40.066Z,51.23
2023-11-30T00:32:07.056Z,52.15
2023-11-30T00:34:33.912Z,51.29
2023-11-30T00:37:00.692Z,50.35
2023-11-30T00:39:27.477Z,49.00
2023-11-30T00:41:55.201Z,49.88
2023-11-30T00:44:22.904Z,49.77
2023-11-30T00:46:49.759Z,48.81
2023-11-30T00:49:16.628Z,48.47
2023-11-30T00:51:43.521Z,48.74
2023-11-30T00:54:10.315Z,49.67
2023-11-30T00:56:37.061Z,49.34
2023-11-30T00:59:05.390Z,50.44
2023-11-30T01:01:32.263Z,49.66
2023-11-30T01:03:59.274Z,48.49
2023-11-30T01:06:26.181Z,48.61
2023-11-30T01:08:53.013Z,49.38
2023-11-30T01:11:21.101Z,52.70
2023-11-30T01:13:47.958Z,51.33
2023-11-30T01:16:14.874Z,49.84
2023-11-30T01:18:41.888Z,49.30
2023-11-30T01:21:08.918Z,49.74
2023-11-30T01:23:36.455Z,52.00
2023-11-30T01:26:04.033Z,52.19
2023-11-30T01:28:30.923Z,51.23
2023-11-30T01:30:57.656Z,50.53
2023-11-30T01:33:24.607Z,49.52
2023-11-30T01:35:51.751Z,49.48
2023-11-30T01:38:18.639Z,49.24
2023-11-30T01:40:45.427Z,49.06
2023-11-30T01:43:12.335Z,49.22
2023-11-30T01:45:39.305Z,50.54
2023-11-30T01:48:06.540Z,50.76
2023-11-30T01:50:34.158Z,49.93
2023-11-30T01:53:02.339Z,51.28
2023-11-30T01:55:29.360Z,49.84
2023-11-30T01:57:56.651Z,50.11
2023-11-30T02:00:25.409Z,50.98
2023-11-30T02:02:53.535Z,51.79
2023-11-30T02:05:20.436Z,49.42
2023-11-30T02:07:47.306Z,54.20
2023-11-30T02:10:15.451Z,50.38
2023-11-30T02:12:42.211Z,50.33
2023-11-30T02:15:10.814Z,49.33
2023-11-30T02:17:37.654Z,51.76
2023-11-30T02:20:05.431Z,52.29
2023-11-30T02:22:32.157Z,51.58
2023-11-30T02:24:59.033Z,52.17
2023-11-30T02:27:25.870Z,51.10
2023-11-30T02:29:52.650Z,50.81
2023-11-30T02:32:20.736Z,51.22
2023-11-30T02:34:47.570Z,51.00
2023-11-30T02:37:15.152Z,51.63
2023-11-30T02:39:41.918Z,51.75
2023-11-30T02:42:09.291Z,50.61
2023-11-30T02:44:36.054Z,51.87
2023-11-30T02:47:02.970Z,52.59
2023-11-30T02:49:29.954Z,54.82
2023-11-30T02:51:57.746Z,53.59
2023-11-30T02:54:24.545Z,51.43
2023-11-30T02:56:51.372Z,52.56
2023-11-30T02:59:18.599Z,53.08
2023-11-30T03:01:46.642Z,52.74
2023-11-30T03:04:13.930Z,54.86
2023-11-30T03:06:42.140Z,53.87
2023-11-30T03:09:10.288Z,53.60
2023-11-30T03:11:37.125Z,52.11
2023-11-30T03:14:03.918Z,51.67
2023-11-30T03:16:30.702Z,51.59
2023-11-30T03:19:10.621Z,51.33
2023-11-30T03:21:43.357Z,52.34
2023-11-30T03:24:10.329Z,51.30
2023-11-30T03:26:37.738Z,52.64
2023-11-30T03:29:05.627Z,49.96
2023-11-30T03:31:32.771Z,51.36
2023-11-30T03:34:00.089Z,50.21
2023-11-30T03:36:27.329Z,50.57
2023-11-30T03:38:59.031Z,49.20
2023-11-30T03:41:26.452Z,48.19
2023-11-30T03:43:53.973Z,51.20
2023-11-30T03:46:23.939Z,50.09
2023-11-30T03:48:55.362Z,49.71
2023-11-30T03:51:22.859Z,52.71
2023-11-30T03:53:49.970Z,51.17
2023-11-30T03:56:19.972Z,53.97
2023-11-30T03:58:47.078Z,52.85
2023-11-30T04:01:24.944Z,51.13
2023-11-30T04:03:52.295Z,50.41
2023-11-30T04:06:24.142Z,49.82
2023-11-30T04:08:52.349Z,51.44
2023-11-30T04:11:19.667Z,53.24
2023-11-30T04:13:48.180Z,53.63
2023-11-30T04:16:19.536Z,53.14
2023-11-30T04:18:49.896Z,55.15
2023-11-30T04:21:17.543Z,52.08
2023-11-30T04:23:45.216Z,51.92
2023-11-30T04:26:12.427Z,54.16
2023-11-30T04:28:40.280Z,54.25
2023-11-30T04:31:07.726Z,54.08
2023-11-30T04:33:34.864Z,51.82
2023-11-30T04:36:07.555Z,51.29
2023-11-30T04:38:34.725Z,51.97
2023-11-30T04:41:03.056Z,52.09
2023-11-30T04:43:30.305Z,53.15
2023-11-30T04:45:57.474Z,52.56
2023-11-30T04:48:24.668Z,56.39
2023-11-30T04:50:51.763Z,54.58
2023-11-30T04:53:19.005Z,54.21
2023-11-30T04:55:48.666Z,55.89
2023-11-30T04:58:15.819Z,54.89
2023-11-30T05:00:43.320Z,55.14
2023-11-30T05:03:10.618Z,55.75
2023-11-30T05:05:38.126Z,54.28
2023-11-30T05:08:05.452Z,52.62
2023-11-30T05:10:32.608Z,53.48
2023-11-30T05:12:59.727Z,55.83
2023-11-30T05:15:27.022Z,52.82
2023-11-30T05:17:54.422Z,53.38
2023-11-30T05:20:21.460Z,54.37
2023-11-30T05:22:48.599Z,53.04
2023-11-30T05:25:15.960Z,53.22
2023-11-30T05:27:42.967Z,52.87
2023-11-30T05:40:58.986Z,53.28
2023-11-30T05:43:29.944Z,52.93
2023-11-30T05:45:57.099Z,54.07
2023-11-30T05:48:24.236Z,54.60
2023-11-30T05:50:51.560Z,54.05
2023-11-30T05:54:28.314Z,56.26
2023-11-30T05:57:20.722Z,54.57
2023-11-30T05:59:47.815Z,53.13
2023-11-30T06:02:18.205Z,52.43
2023-11-30T06:04:55.504Z,52.61
2023-11-30T06:07:24.703Z,52.32
2023-11-30T06:09:51.994Z,52.05
2023-11-30T06:12:18.965Z,55.25
2023-11-30T06:14:45.936Z,52.76
2023-11-30T06:17:13.615Z,53.20
2023-11-30T06:19:41.906Z,52.01
2023-11-30T06:22:08.990Z,55.76
2023-11-30T06:24:36.910Z,55.02
2023-11-30T06:27:04.253Z,56.42
2023-11-30T06:29:31.408Z,54.46
2023-11-30T06:32:00.915Z,54.93
2023-11-30T06:34:27.950Z,56.58
2023-11-30T06:36:54.813Z,53.48
2023-11-30T06:39:21.650Z,54.60
2023-11-30T06:41:50.607Z,53.05
2023-11-30T06:44:19.284Z,54.94
2023-11-30T06:46:46.175Z,53.08
2023-11-30T06:49:14.214Z,52.99
2023-11-30T06:51:41.038Z,52.64
2023-11-30T06:54:07.880Z,55.17
2023-11-30T06:56:34.761Z,53.05
2023-11-30T06:59:01.454Z,53.75
2023-11-30T07:01:28.461Z,54.75
2023-11-30T07:03:56.439Z,53.07
2023-11-30T07:06:23.723Z,54.12
2023-11-30T07:08:50.534Z,51.47
2023-11-30T07:11:17.433Z,51.36
2023-11-30T07:13:44.593Z,52.79
2023-11-30T07:16:11.940Z,54.69
2023-11-30T07:18:38.725Z,52.40
2023-11-30T07:21:06.371Z,51.39
2023-11-30T07:23:33.720Z,53.70
2023-11-30T07:26:00.501Z,51.96
2023-11-30T07:28:27.606Z,50.30
2023-11-30T07:30:54.406Z,51.51
2023-11-30T07:33:21.287Z,50.83
2023-11-30T07:35:48.028Z,52.49
2023-11-30T07:38:15.207Z,51.69
2023-11-30T07:40:42.044Z,51.50
2023-11-30T07:43:08.810Z,51.01
2023-11-30T07:45:35.644Z,52.13
2023-11-30T07:48:04.534Z,51.36
2023-11-30T07:50:32.120Z,51.05
2023-11-30T07:52:58.875Z,53.14
2023-11-30T07:55:25.637Z,53.18
2023-11-30T07:57:52.446Z,50.82
2023-11-30T08:00:19.747Z,51.29
2023-11-30T08:02:46.492Z,51.17
2023-11-30T08:05:13.707Z,50.82
2023-11-30T08:07:40.581Z,52.78
2023-11-30T08:10:07.949Z,50.54
2023-11-30T08:12:34.965Z,50.16
2023-11-30T08:15:01.809Z,51.90
2023-11-30T08:17:29.099Z,51.66
2023-11-30T08:19:56.076Z,49.91
2023-11-30T08:22:22.995Z,50.76
2023-11-30T08:24:49.970Z,50.05
2023-11-30T08:27:16.808Z,52.89
2023-11-30T08:29:43.640Z,52.97
2023-11-30T08:32:12.030Z,51.45
2023-11-30T08:34:38.865Z,50.29
2023-11-30T08:37:05.583Z,51.92
2023-11-30T08:39:32.372Z,52.22
2023-11-30T08:41:59.186Z,52.07
2023-11-30T08:44:25.994Z,51.17
2023-11-30T08:46:54.035Z,52.23
2023-11-30T08:49:20.859Z,52.10
2023-11-30T08:51:47.701Z,51.30
2023-11-30T08:54:14.581Z,52.15
2023-11-30T08:56:41.629Z,49.77
2023-11-30T08:59:08.401Z,50.39
2023-11-30T09:01:35.405Z,49.41
2023-11-30T09:04:06.151Z,48.74
2023-11-30T09:06:34.548Z,49.22
2023-11-30T09:09:02.665Z,50.74
2023-11-30T09:11:34.720Z,49.98
2023-11-30T09:14:01.817Z,49.36
2023-11-30T09:16:28.650Z,50.05
2023-11-30T09:18:55.626Z,51.51
2023-11-30T09:21:23.394Z,49.36
2023-11-30T09:23:50.856Z,48.56
2023-11-30T09:26:21.234Z,50.54
2023-11-30T09:28:48.125Z,50.34
2023-11-30T09:31:15.031Z,49.87
2023-11-30T09:33:41.896Z,48.99
2023-11-30T09:36:09.348Z,50.13
2023-11-30T09:38:36.789Z,49.00
2023-11-30T09:41:07.216Z,50.69
2023-11-30T09:43:34.720Z,51.58
2023-11-30T09:46:01.642Z,51.50
2023-11-30T09:48:28.494Z,52.04
2023-11-30T09:50:55.642Z,52.22
2023-11-30T09:53:22.782Z,53.11
2023-11-30T09:55:49.630Z,54.95
2023-11-30T09:58:16.641Z,55.55
2023-11-30T10:00:43.625Z,54.16
2023-11-30T10:03:10.626Z,53.43
2023-11-30T10:05:37.421Z,53.67
2023-11-30T10:08:04.424Z,53.92
2023-11-30T10:10:31.422Z,50.54
2023-11-30T10:12:58.297Z,51.40
2023-11-30T10:15:25.252Z,52.93
2023-11-30T10:17:52.303Z,51.64
2023-11-30T10:20:19.964Z,52.23
2023-11-30T10:22:47.089Z,51.91
2023-11-30T10:25:14.325Z,54.79
2023-11-30T10:27:42.686Z,55.36
2023-11-30T10:30:12.812Z,53.20
2023-11-30T10:32:41.184Z,51.35
2023-11-30T10:35:15.570Z,55.42
2023-11-30T10:37:47.626Z,55.36
2023-11-30T10:40:18.431Z,55.23
2023-11-30T10:42:52.690Z,54.84
2023-11-30T10:45:22.255Z,53.51
2023-11-30T10:47:49.304Z,53.86
2023-11-30T10:50:17.035Z,56.87
2023-11-30T10:52:46.038Z,57.12
2023-11-30T10:55:15.205Z,54.31
2023-11-30T10:57:45.731Z,54.57
2023-11-30T11:00:13.903Z,53.27
2023-11-30T11:02:49.128Z,52.62
2023-11-30T11:05:19.780Z,54.13
2023-11-30T11:07:50.691Z,55.85
2023-11-30T11:10:24.674Z,53.73
2023-11-30T11:12:52.547Z,56.34
2023-11-30T11:15:23.777Z,53.79
2023-11-30T11:17:55.397Z,55.74
2023-11-30T11:20:30.807Z,54.79
2023-11-30T11:23:08.328Z,56.47
2023-11-30T11:25:44.783Z,53.52
2023-11-30T11:28:12.698Z,52.26
2023-11-30T11:30:48.381Z,53.46
2023-11-30T11:33:22.408Z,54.21
2023-11-30T11:35:49.355Z,54.13
2023-11-30T11:38:16.143Z,54.61
2023-11-30T11:40:43.142Z,52.86
2023-11-30T11:43:10.244Z,52.43
2023-11-30T11:45:38.430Z,55.28
2023-11-30T11:48:05.993Z,53.91
2023-11-30T11:50:32.839Z,53.50
2023-11-30T11:53:01.138Z,54.12
2023-11-30T11:55:28.096Z,53.68
2023-11-30T11:57:58.004Z,55.52
2023-11-30T12:00:25.939Z,56.29
2023-11-30T12:03:04.181Z,54.75
2023-11-30T12:05:32.161Z,52.89
2023-11-30T12:08:02.125Z,53.67
2023-11-30T12:10:33.265Z,56.55
2023-11-30T12:13:01.808Z,54.78
2023-11-30T12:15:29.507Z,54.53
2023-11-30T12:17:56.712Z,53.27
2023-11-30T12:20:23.807Z,51.45
2023-11-30T12:22:50.597Z,54.67
2023-11-30T12:25:17.906Z,52.52
2023-11-30T12:27:45.103Z,53.57
2023-11-30T12:30:12.431Z,54.99
2023-11-30T12:32:39.784Z,54.81
2023-11-30T12:35:08.016Z,52.38
2023-11-30T12:37:36.703Z,53.47
2023-11-30T12:40:04.993Z,51.86
2023-11-30T12:42:32.429Z,51.92
2023-11-30T12:44:59.655Z,51.51
2023-11-30T12:47:26.925Z,53.06
2023-11-30T12:49:53.813Z,52.91
2023-11-30T12:52:22.123Z,50.81
2023-11-30T12:54:53.058Z,52.06
2023-11-30T12:57:21.064Z,52.97
2023-11-30T12:59:47.996Z,53.22
2023-11-30T13:02:14.928Z,52.63
2023-11-30T13:04:42.831Z,54.12
2023-11-30T13:07:12.384Z,53.41
2023-11-30T13:09:39.272Z,51.20
2023-11-30T13:12:06.242Z,51.11
2023-11-30T13:14:33.215Z,52.00
2023-11-30T13:17:00.067Z,51.60
2023-11-30T13:19:27.063Z,51.58
2023-11-30T13:21:54.022Z,54.58
2023-11-30T13:24:21.182Z,52.27
2023-11-30T13:26:49.417Z,54.53
2023-11-30T13:29:16.394Z,53.25
2023-11-30T13:31:44.580Z,53.97
2023-11-30T13:34:11.610Z,52.27
2023-11-30T13:36:38.527Z,52.60
2023-11-30T13:39:11.129Z,53.14
2023-11-30T13:41:37.943Z,52.97
2023-11-30T13:44:06.163Z,53.41
2023-11-30T13:46:33.100Z,53.23
2023-11-30T13:49:00.427Z,52.22
2023-11-30T13:51:27.374Z,52.50
2023-11-30T13:53:54.147Z,52.64
2023-11-30T13:56:22.787Z,53.30
2023-11-30T13:58:50.791Z,54.20
2023-11-30T14:01:17.992Z,53.91
2023-11-30T14:03:45.060Z,56.55
2023-11-30T14:06:13.306Z,55.00
2023-11-30T14:08:41.371Z,54.32
2023-11-30T14:11:13.153Z,55.62
2023-11-30T14:13:40.370Z,53.67
2023-11-30T14:16:07.769Z,53.76
2023-11-30T14:18:34.694Z,53.67
2023-11-30T14:21:01.960Z,53.49
2023-11-30T14:23:28.998Z,55.50
2023-11-30T14:25:57.666Z,53.14
2023-11-30T14:28:26.180Z,51.58
2023-11-30T14:30:53.595Z,53.51
2023-11-30T14:33:20.784Z,53.84
2023-11-30T14:35:47.640Z,54.58
2023-11-30T14:38:14.402Z,53.17
2023-11-30T14:40:41.222Z,54.74
2023-11-30T14:43:08.001Z,55.22
2023-11-30T14:45:34.882Z,53.35
2023-11-30T14:48:01.836Z,53.67
2023-11-30T14:50:28.738Z,52.21
2023-11-30T14:52:55.507Z,53.21
2023-11-30T14:55:22.458Z,54.91
2023-11-30T14:57:49.478Z,55.43
2023-11-30T15:00:18.565Z,53.17
2023-11-30T15:02:45.528Z,50.99
2023-11-30T15:05:15.327Z,52.15
2023-11-30T15:07:43.000Z,54.46
2023-11-30T15:10:12.295Z,53.26
2023-11-30T15:12:40.142Z,51.35
2023-11-30T15:15:14.600Z,54.69
2023-11-30T15:17:46.897Z,54.68
2023-11-30T15:20:14.453Z,53.47
2023-11-30T15:22:41.531Z,55.27
2023-11-30T15:25:09.295Z,51.93
2023-11-30T15:27:38.450Z,53.62
2023-11-30T15:30:07.662Z,54.17
2023-11-30T15:32:34.838Z,53.92
2023-11-30T15:35:01.697Z,55.43
2023-11-30T15:37:29.581Z,53.04
2023-11-30T15:39:56.559Z,54.74
2023-11-30T15:42:25.572Z,55.45
2023-11-30T15:44:52.755Z,56.90
2023-11-30T15:47:19.652Z,57.43
2023-11-30T15:49:46.735Z,55.01
2023-11-30T15:52:14.931Z,56.45
2023-11-30T15:54:42.292Z,54.68
2023-11-30T15:57:09.147Z,55.73
2023-11-30T15:59:36.034Z,53.07
2023-11-30T16:02:02.950Z,54.56
2023-11-30T16:04:30.426Z,55.53
2023-11-30T16:06:58.061Z,54.73
2023-11-30T16:09:24.975Z,54.97
2023-11-30T16:11:51.870Z,54.89
2023-11-30T16:14:18.702Z,55.44
2023-11-30T16:16:45.934Z,54.05
2023-11-30T16:19:12.791Z,53.02
2023-11-30T16:21:39.809Z,52.41
2023-11-30T16:24:06.774Z,53.64
2023-11-30T16:26:34.806Z,55.36
2023-11-30T16:29:01.779Z,55.07
2023-11-30T16:31:28.670Z,54.16
2023-11-30T16:33:55.665Z,54.95
2023-11-30T16:36:24.283Z,53.48
2023-11-30T16:38:51.838Z,52.79
2023-11-30T16:41:18.787Z,52.64
2023-11-30T16:43:46.454Z,54.59
2023-11-30T16:46:13.727Z,55.55
2023-11-30T16:48:45.266Z,53.73
2023-11-30T16:51:12.763Z,55.97
2023-11-30T16:53:39.786Z,56.49
2023-11-30T16:56:06.931Z,55.17
2023-11-30T16:58:33.886Z,54.57
2023-11-30T17:01:00.995Z,55.54
2023-11-30T17:03:28.072Z,54.66
2023-11-30T17:05:55.016Z,56.23
2023-11-30T17:08:21.984Z,53.64
2023-11-30T17:10:48.831Z,52.57
2023-11-30T17:13:16.411Z,53.67
2023-11-30T17:15:43.220Z,55.18
2023-11-30T17:18:10.155Z,53.59
2023-11-30T17:20:37.017Z,53.15
2023-11-30T17:23:06.330Z,53.52
2023-11-30T17:25:33.109Z,52.62
2023-11-30T17:28:00.037Z,52.58
2023-11-30T17:30:26.988Z,53.36
2023-11-30T17:32:54.127Z,53.87
2023-11-30T17:35:21.199Z,55.41
2023-11-30T17:37:48.540Z,54.35
2023-11-30T17:40:15.426Z,54.00
2023-11-30T17:42:42.307Z,54.70
2023-11-30T17:45:10.789Z,55.19
2023-11-30T17:47:38.698Z,56.41
2023-11-30T17:50:10.347Z,57.38
2023-11-30T17:52:37.439Z,56.25
2023-11-30T17:55:04.477Z,55.24
2023-11-30T17:57:32.470Z,55.57
2023-11-30T17:59:59.362Z,55.38
2023-11-30T18:02:26.788Z,55.78
2023-11-30T18:04:53.681Z,53.30
2023-11-30T18:07:20.428Z,54.89
2023-11-30T18:09:47.437Z,53.62
2023-11-30T18:12:15.216Z,53.61
2023-11-30T18:14:42.992Z,55.28
2023-11-30T18:17:10.588Z,56.31
2023-11-30T18:19:37.491Z,57.97
2023-11-30T18:22:04.527Z,55.12
2023-11-30T18:24:31.833Z,54.98
2023-11-30T18:27:00.282Z,54.64
2023-11-30T18:29:27.599Z,56.77
2023-11-30T18:31:54.614Z,54.91
2023-11-30T18:34:21.458Z,55.46
2023-11-30T18:36:48.592Z,55.57
2023-11-30T18:39:16.609Z,55.54
2023-11-30T18:41:44.061Z,53.89
2023-11-30T18:44:13.070Z,54.62
2023-11-30T18:46:40.312Z,55.05
2023-11-30T18:49:07.223Z,54.14
2023-11-30T18:51:35.438Z,54.28
2023-11-30T18:54:03.166Z,54.00
2023-11-30T18:56:30.095Z,54.20
2023-11-30T18:58:57.271Z,55.13
2023-11-30T19:01:25.066Z,55.24
2023-11-30T19:03:52.272Z,55.65
2023-11-30T19:06:20.869Z,54.76
2023-11-30T19:08:49.587Z,55.73
2023-11-30T19:11:17.575Z,55.59
2023-11-30T19:13:44.768Z,58.98
2023-11-30T19:16:24.104Z,56.94
2023-11-30T19:18:51.548Z,59.14
2023-11-30T19:21:18.938Z,57.85
2023-11-30T19:23:49.162Z,56.77
2023-11-30T19:26:16.122Z,56.71
2023-11-30T19:28:42.908Z,56.96
2023-11-30T19:31:09.930Z,54.89
2023-11-30T19:33:36.888Z,56.23
2023-11-30T19:36:04.577Z,54.31
2023-11-30T19:38:31.508Z,55.95
2023-11-30T19:40:59.744Z,54.99
2023-11-30T19:43:26.863Z,54.95
2023-11-30T19:45:59.678Z,54.65
2023-11-30T19:48:27.705Z,54.36
2023-11-30T19:50:56.207Z,54.86
2023-11-30T19:53:23.117Z,54.75
2023-11-30T19:55:50.430Z,54.50
2023-11-30T19:58:17.235Z,55.23
2023-11-30T20:00:45.470Z,54.55
2023-11-30T20:03:12.664Z,54.62
2023-11-30T20:05:39.705Z,54.98
2023-11-30T20:08:06.973Z,53.54
2023-11-30T20:10:34.040Z,52.40
2023-11-30T20:13:02.255Z,54.11
2023-11-30T20:15:30.899Z,53.12
2023-11-30T20:17:57.988Z,52.74
2023-11-30T20:20:25.405Z,54.81
2023-11-30T20:22:52.195Z,56.64
2023-11-30T20:25:19.064Z,56.28
2023-11-30T20:27:45.961Z,54.95
2023-11-30T20:30:13.280Z,59.45
2023-11-30T20:32:40.635Z,58.38
2023-11-30T20:35:08.066Z,55.43
2023-11-30T20:37:34.969Z,54.74
2023-11-30T20:40:02.081Z,55.95
2023-11-30T20:42:28.957Z,55.57
2023-11-30T20:44:55.793Z,55.45
2023-11-30T20:47:25.033Z,57.18
2023-11-30T20:49:53.077Z,55.61
2023-11-30T20:52:20.320Z,56.02
2023-11-30T20:54:47.502Z,55.16
2023-11-30T20:57:16.579Z,54.63
2023-11-30T20:59:43.619Z,55.78
2023-11-30T21:02:11.255Z,56.44
2023-11-30T21:04:38.431Z,54.45
2023-11-30T21:07:07.260Z,53.69
2023-11-30T21:09:34.176Z,56.14
2023-11-30T21:12:01.042Z,54.09
2023-11-30T21:14:27.876Z,53.21
2023-11-30T21:16:54.726Z,55.51
2023-11-30T21:19:21.606Z,55.02
2023-11-30T21:21:48.728Z,53.10
2023-11-30T21:24:16.280Z,58.91
2023-11-30T21:26:43.363Z,56.24
2023-11-30T21:29:10.300Z,54.71
2023-11-30T21:31:39.438Z,53.49
2023-11-30T21:34:06.840Z,56.70
2023-11-30T21:36:34.091Z,53.79
2023-11-30T21:39:01.096Z,55.23
2023-11-30T21:41:28.493Z,54.46
2023-11-30T21:43:55.324Z,56.83
2023-11-30T21:46:22.137Z,57.08
2023-11-30T21:48:49.161Z,58.26
2023-11-30T21:51:16.108Z,58.55
2023-11-30T21:53:42.844Z,55.79
2023-11-30T21:56:11.315Z,57.00
2023-11-30T21:58:38.793Z,56.50
2023-11-30T22:01:06.298Z,56.65
2023-11-30T22:03:33.576Z,55.38
2023-11-30T22:06:00.589Z,60.05
2023-11-30T22:08:28.795Z,57.78
2023-11-30T22:10:55.787Z,56.69
2023-11-30T22:13:22.689Z,56.89
2023-11-30T22:15:57.166Z,55.69
2023-11-30T22:18:30.980Z,58.63
2023-11-30T22:20:57.903Z,61.51
2023-11-30T22:23:24.857Z,58.51
2023-11-30T22:25:58.637Z,60.08
2023-11-30T22:28:31.097Z,61.49
2023-11-30T22:30:57.953Z,63.31
2023-11-30T22:33:24.780Z,63.21
2023-11-30T22:35:51.667Z,62.44
2023-11-30T22:38:18.443Z,59.75
2023-11-30T22:40:45.264Z,57.67
2023-11-30T22:43:12.168Z,57.14
2023-11-30T22:45:39.185Z,55.61
2023-11-30T22:48:06.066Z,56.30
2023-11-30T22:50:33.233Z,56.27
2023-11-30T22:53:00.230Z,56.33
2023-11-30T22:55:27.186Z,56.67
2023-11-30T22:57:54.385Z,54.20
2023-11-30T23:00:25.016Z,57.84
2023-11-30T23:02:52.682Z,54.95
2023-11-30T23:05:19.903Z,56.97
2023-11-30T23:07:46.952Z,60.40
2023-11-30T23:10:16.508Z,63.15
2023-11-30T23:12:45.552Z,59.29
2023-11-30T23:15:12.380Z,59.27
2023-11-30T23:17:39.365Z,58.82
2023-11-30T23:20:06.966Z,55.87
2023-11-30T23:22:34.609Z,59.70
2023-11-30T23:25:01.655Z,56.97
2023-11-30T23:27:28.451Z,56.61
2023-11-30T23:29:55.301Z,61.25
2023-11-30T23:32:22.262Z,59.95
2023-11-30T23:34:49.244Z,56.99
2023-11-30T23:37:16.065Z,57.59
2023-11-30T23:39:42.971Z,57.62
2023-11-30T23:42:09.984Z,56.96
2023-11-30T23:44:38.898Z,56.11
2023-11-30T23:47:05.847Z,57.41
2023-11-30T23:49:36.705Z,55.51
2023-11-30T23:52:03.935Z,54.65
2023-11-30T23:54:30.980Z,54.60
2023-11-30T23:56:57.738Z,54.34
2023-11-30T23:59:24.635Z,55.26
